Time;durP1;ratioP1;P1;durP2;ratioP2;P2;SDS_P1;SDS_P2;PMS_P1;PMS_P2;Temp;Humidity;BMP_temperature;BMP_pressure;BME280_temperature;BME280_humidity;BME280_pressure;Samples;Min_cycle;Max_cycle;Signal;HPM_P1;HPM_P2
2022/04/25 00:01:20;;;;;;;10.85;4.03;;;6.50;99.90;;;;;;5035402;28;20082;-72
2022/04/25 00:03:46;;;;;;;6.30;3.22;;;6.60;99.90;;;;;;5047404;28;20048;-71
2022/04/25 00:06:12;;;;;;;3.00;2.75;;;6.70;99.90;;;;;;5060245;28;20043;-71
2022/04/25 00:08:37;;;;;;;0.43;0.43;;;6.90;99.90;;;;;;5056719;28;20085;-71
2022/04/25 00:11:04;;;;;;;8.02;4.05;;;7.00;99.90;;;;;;5069939;28;20115;-71
2022/04/25 00:13:29;;;;;;;3.70;2.28;;;7.10;99.90;;;;;;5035936;28;20040;-71
2022/04/25 00:15:55;;;;;;;5.38;3.08;;;7.20;99.90;;;;;;5050191;28;20083;-71
2022/04/25 00:18:21;;;;;;;9.60;4.25;;;7.30;99.90;;;;;;5038294;28;20396;-72
2022/04/25 00:20:48;;;;;;;6.95;3.50;;;7.40;99.90;;;;;;5058214;28;20173;-72
2022/04/25 00:23:13;;;;;;;3.75;1.65;;;7.50;99.90;;;;;;5052627;28;20050;-72
2022/04/25 00:25:39;;;;;;;5.10;3.63;;;7.60;99.90;;;;;;5046736;28;20044;-72
2022/04/25 00:28:05;;;;;;;4.20;2.20;;;7.60;99.90;;;;;;5063430;28;20043;-72
2022/04/25 00:30:31;;;;;;;3.30;2.17;;;7.60;99.90;;;;;;5064941;28;20051;-72
2022/04/25 00:32:58;;;;;;;8.30;3.10;;;7.60;99.90;;;;;;5049454;28;20032;-72
2022/04/25 00:35:25;;;;;;;3.78;3.30;;;7.70;99.90;;;;;;5054788;28;20048;-72
2022/04/25 00:37:51;;;;;;;5.25;3.25;;;7.70;99.90;;;;;;5046433;28;20040;-72
2022/04/25 00:40:22;;;;;;;3.03;1.73;;;7.70;99.90;;;;;;5063280;28;20040;-72
2022/04/25 00:42:48;;;;;;;1.88;1.58;;;7.70;99.90;;;;;;5057720;28;20522;-71
2022/04/25 00:45:15;;;;;;;4.22;3.25;;;7.70;99.90;;;;;;5036467;28;20036;-71
2022/04/25 00:47:42;;;;;;;10.23;3.13;;;7.70;99.90;;;;;;5050278;28;20052;-71
2022/04/25 00:50:09;;;;;;;4.25;3.08;;;7.70;99.90;;;;;;5050969;28;20067;-72
2022/04/25 00:52:36;;;;;;;6.03;2.47;;;7.70;99.90;;;;;;5039614;28;20051;-72
2022/04/25 00:55:06;;;;;;;2.17;2.05;;;7.70;99.90;;;;;;5049583;28;20044;-72
2022/04/25 00:57:32;;;;;;;1.40;1.30;;;7.80;99.90;;;;;;5047326;28;20121;-72
2022/04/25 00:59:58;;;;;;;1.95;1.85;;;7.80;99.90;;;;;;5076281;28;20032;-71
2022/04/25 01:02:26;;;;;;;6.60;3.58;;;7.80;99.90;;;;;;5060560;28;20455;-72
2022/04/25 01:04:53;;;;;;;1.92;1.83;;;7.80;99.90;;;;;;5053437;28;20040;-72
2022/04/25 01:07:18;;;;;;;3.30;1.75;;;7.80;99.90;;;;;;5049041;28;20049;-72
2022/04/25 01:09:44;;;;;;;1.85;1.75;;;7.80;99.90;;;;;;5059143;28;20039;-72
2022/04/25 01:12:10;;;;;;;0.50;0.50;;;7.80;99.90;;;;;;5060791;28;20384;-72
2022/04/25 01:14:35;;;;;;;4.57;2.85;;;7.80;99.90;;;;;;5053661;28;20076;-71
2022/04/25 01:17:02;;;;;;;1.40;1.30;;;7.80;99.90;;;;;;5048091;28;20036;-72
2022/04/25 01:19:28;;;;;;;0.40;0.40;;;7.80;99.90;;;;;;5058527;28;20051;-72
2022/04/25 01:21:58;;;;;;;0.40;0.40;;;7.80;99.90;;;;;;5068125;28;20036;-72
2022/04/25 01:27:16;;;;;;;1.85;1.35;;;7.80;99.90;;;;;;5052431;28;20049;-72
2022/04/25 01:29:49;;;;;;;;;;;7.70;99.90;;;;;;5040131;28;20115;-72
2022/04/25 01:32:16;;;;;;;3.58;2.88;;;7.70;99.90;;;;;;5038975;28;19916;-72
2022/04/25 01:34:42;;;;;;;0.90;0.90;;;7.60;99.90;;;;;;5051627;28;20043;-72
2022/04/25 01:37:09;;;;;;;0.40;0.40;;;7.50;99.90;;;;;;5043465;28;20123;-72
2022/04/25 01:39:53;;;;;;;0.90;0.90;;;7.50;99.90;;;;;;5052141;28;20336;-71
2022/04/25 01:42:20;;;;;;;0.75;0.75;;;7.30;99.90;;;;;;5062515;28;20074;-72
2022/04/25 01:44:46;;;;;;;0.50;0.50;;;7.20;99.90;;;;;;5044335;28;20048;-72
2022/04/25 01:47:11;;;;;;;1.15;1.15;;;7.10;99.90;;;;;;5061785;28;20040;-72
2022/04/25 01:49:38;;;;;;;1.02;1.02;;;7.10;99.90;;;;;;5041011;28;20060;-72
2022/04/25 01:52:25;;;;;;;1.08;0.77;;;7.00;99.90;;;;;;5033525;28;20048;-71
2022/04/25 01:54:51;;;;;;;0.80;0.80;;;6.90;99.90;;;;;;5034016;28;20067;-72
2022/04/25 01:57:17;;;;;;;7.65;2.45;;;6.80;99.90;;;;;;5027688;28;20064;-71
2022/04/25 01:59:43;;;;;;;1.50;1.40;;;6.80;99.90;;;;;;5049250;28;20063;-72
2022/04/25 02:02:10;;;;;;;1.02;1.00;;;6.70;99.90;;;;;;5049784;28;20047;-72
2022/04/25 02:04:36;;;;;;;1.13;0.90;;;6.60;99.90;;;;;;5029785;28;20056;-71
2022/04/25 02:07:02;;;;;;;0.50;0.50;;;6.60;99.90;;;;;;5032681;28;20044;-72
2022/04/25 02:09:27;;;;;;;3.47;2.80;;;6.50;99.90;;;;;;5058538;28;20028;-71
2022/04/25 02:11:53;;;;;;;2.53;2.30;;;6.50;99.90;;;;;;5035788;28;20045;-71
2022/04/25 02:14:19;;;;;;;9.32;3.53;;;6.40;99.90;;;;;;5064158;28;20037;-71
2022/04/25 02:16:45;;;;;;;0.80;0.80;;;6.40;99.90;;;;;;5049523;28;20044;-72
2022/04/25 02:19:10;;;;;;;0.82;0.82;;;6.40;99.90;;;;;;5050017;28;20481;-72
2022/04/25 02:21:36;;;;;;;0.68;0.68;;;6.30;99.90;;;;;;5045026;28;20136;-72
2022/04/25 02:24:02;;;;;;;0.68;0.68;;;6.20;99.90;;;;;;5043789;28;21415;-72
2022/04/25 02:26:28;;;;;;;2.17;2.00;;;6.20;99.90;;;;;;5052479;28;20044;-72
2022/04/25 02:28:54;;;;;;;0.40;0.40;;;6.20;99.90;;;;;;5047999;28;20044;-71
2022/04/25 02:31:20;;;;;;;0.50;0.50;;;6.20;99.90;;;;;;5053073;28;20032;-72
2022/04/25 02:33:46;;;;;;;3.17;2.88;;;6.10;99.90;;;;;;5053573;28;20036;-72
2022/04/25 02:36:12;;;;;;;0.50;0.50;;;6.10;99.90;;;;;;5017503;28;20055;-71
2022/04/25 02:38:39;;;;;;;3.58;2.05;;;6.10;99.90;;;;;;5055278;28;20122;-71
2022/04/25 02:41:05;;;;;;;1.08;1.08;;;6.10;99.90;;;;;;5053520;28;20404;-72
2022/04/25 02:43:39;;;;;;;7.13;4.22;;;6.20;99.90;;;;;;5031619;28;20047;-71
2022/04/25 02:46:08;;;;;;;0.80;0.80;;;6.20;99.90;;;;;;5033969;28;20037;-72
2022/04/25 02:48:35;;;;;;;0.60;0.60;;;6.20;99.90;;;;;;5051073;28;20024;-71
2022/04/25 02:51:05;;;;;;;1.33;1.27;;;6.20;99.90;;;;;;5050463;28;20064;-72
2022/04/25 02:53:32;;;;;;;1.50;1.40;;;6.20;99.90;;;;;;5046985;28;20045;-72
2022/04/25 02:55:58;;;;;;;0.50;0.50;;;6.20;99.90;;;;;;5047097;28;20492;-72
2022/04/25 02:58:25;;;;;;;0.90;0.90;;;6.20;99.90;;;;;;5048448;28;20047;-72
2022/04/25 03:00:51;;;;;;;0.70;0.70;;;6.20;99.90;;;;;;5049486;28;20055;-72
2022/04/25 03:03:19;;;;;;;11.98;2.20;;;6.30;99.90;;;;;;5049730;28;20382;-72
2022/04/25 03:05:46;;;;;;;0.98;0.98;;;6.30;99.90;;;;;;5046019;28;20083;-71
2022/04/25 03:08:13;;;;;;;4.90;3.85;;;6.40;99.90;;;;;;5030610;28;20036;-72
2022/04/25 03:10:39;;;;;;;1.08;0.80;;;6.40;99.90;;;;;;5047998;28;20075;-72
2022/04/25 03:13:08;;;;;;;0.30;0.30;;;6.50;99.90;;;;;;5031464;28;20040;-71
2022/04/25 03:15:37;;;;;;;1.10;1.10;;;6.50;99.90;;;;;;5028369;28;20194;-71
2022/04/25 03:18:03;;;;;;;11.02;4.70;;;6.60;99.90;;;;;;5048131;28;20125;-71
2022/04/25 03:20:28;;;;;;;4.07;3.67;;;6.70;99.90;;;;;;5028861;28;20063;-71
2022/04/25 03:22:57;;;;;;;3.88;2.55;;;6.90;99.90;;;;;;5050381;28;20141;-71
2022/04/25 03:25:23;;;;;;;7.38;4.43;;;7.00;99.90;;;;;;5031021;28;20056;-71
2022/04/25 03:27:49;;;;;;;0.70;0.70;;;7.10;99.90;;;;;;5047949;28;20041;-72
2022/04/25 03:30:14;;;;;;;0.85;0.65;;;7.20;99.90;;;;;;5036789;28;20080;-72
2022/04/25 03:32:45;;;;;;;4.78;1.52;;;7.30;99.90;;;;;;5028977;28;20036;-72
2022/04/25 03:35:12;;;;;;;1.52;1.25;;;7.40;99.90;;;;;;5052600;28;20036;-72
2022/04/25 03:37:38;;;;;;;0.82;0.82;;;7.40;99.90;;;;;;5047940;28;20055;-72
2022/04/25 03:40:05;;;;;;;1.85;1.75;;;7.40;99.90;;;;;;5032777;28;20044;-72
2022/04/25 03:42:31;;;;;;;0.52;0.52;;;7.40;99.90;;;;;;5049777;28;20503;-72
2022/04/25 03:44:56;;;;;;;0.63;0.63;;;7.50;99.90;;;;;;5047631;28;20653;-71
2022/04/25 03:47:23;;;;;;;2.58;2.35;;;7.50;99.90;;;;;;5033123;28;20047;-71
2022/04/25 03:49:48;;;;;;;1.75;1.63;;;7.50;99.90;;;;;;5048533;28;20056;-72
2022/04/25 03:52:14;;;;;;;5.30;3.65;;;7.50;99.90;;;;;;5030747;28;20033;-71
2022/04/25 03:57:24;;;;;;;1.80;1.33;;;7.60;99.90;;;;;;5047868;28;20044;-72
2022/04/25 03:59:49;;;;;;;2.45;2.25;;;7.60;99.90;;;;;;5036420;28;20043;-71
2022/04/25 04:02:15;;;;;;;1.65;1.45;;;7.60;99.90;;;;;;5055214;28;20089;-72
2022/04/25 04:04:40;;;;;;;15.30;3.67;;;7.60;99.90;;;;;;5047125;28;20087;-72
2022/04/25 04:07:06;;;;;;;1.10;1.02;;;7.70;99.90;;;;;;5055235;28;20083;-72
2022/04/25 04:09:47;;;;;;;10.75;3.58;;;7.70;99.90;;;;;;5050162;28;20479;-72
2022/04/25 04:12:18;;;;;;;7.22;4.03;;;7.70;99.90;;;;;;5062836;28;20043;-72
2022/04/25 04:14:45;;;;;;;5.25;2.80;;;7.70;99.90;;;;;;5036995;28;20150;-71
2022/04/25 04:17:11;;;;;;;4.53;3.08;;;7.70;99.90;;;;;;5053296;28;20044;-72
2022/04/25 04:19:38;;;;;;;4.30;3.30;;;7.70;99.90;;;;;;5038431;28;20060;-72
2022/04/25 04:22:05;;;;;;;2.88;1.95;;;7.70;99.90;;;;;;5031134;28;20121;-72
2022/04/25 04:24:32;;;;;;;8.43;4.13;;;7.60;99.90;;;;;;5037437;28;20055;-72
2022/04/25 04:27:05;;;;;;;2.90;2.22;;;7.70;99.90;;;;;;5034282;28;20049;-72
2022/04/25 04:29:34;;;;;;;12.48;4.63;;;7.60;99.90;;;;;;5019870;28;20396;-72
2022/04/25 04:32:07;;;;;;;4.72;3.50;;;7.60;99.90;;;;;;5048042;28;20093;-72
2022/04/25 04:34:34;;;;;;;10.52;3.08;;;7.60;99.90;;;;;;5044678;28;20044;-72
2022/04/25 04:37:00;;;;;;;5.20;2.63;;;7.60;99.90;;;;;;5051246;28;20044;-72
2022/04/25 04:39:26;;;;;;;10.10;4.65;;;7.60;99.90;;;;;;5028856;28;20416;-72
2022/04/25 04:41:52;;;;;;;3.97;3.13;;;7.50;99.90;;;;;;5045401;28;20040;-72
2022/04/25 04:44:17;;;;;;;5.43;2.92;;;7.50;99.90;;;;;;5045508;28;20145;-72
2022/04/25 04:46:43;;;;;;;8.00;3.97;;;7.50;99.90;;;;;;5033062;28;20045;-72
2022/04/25 04:49:09;;;;;;;4.15;2.67;;;7.50;99.90;;;;;;5044126;28;20045;-72
2022/04/25 04:51:35;;;;;;;3.42;2.88;;;7.50;99.90;;;;;;5049926;28;20055;-72
2022/04/25 04:54:02;;;;;;;2.75;2.38;;;7.50;99.90;;;;;;5049389;28;20483;-72
2022/04/25 04:56:29;;;;;;;6.32;4.80;;;7.50;99.90;;;;;;5045975;28;20048;-72
2022/04/25 04:58:55;;;;;;;5.40;3.70;;;7.50;99.90;;;;;;5046540;28;20039;-72
2022/04/25 05:01:21;;;;;;;8.70;4.25;;;7.50;99.90;;;;;;5049683;28;20045;-72
2022/04/25 05:03:46;;;;;;;2.65;2.13;;;7.50;99.90;;;;;;5061970;28;20048;-72
2022/04/25 05:06:12;;;;;;;5.00;3.70;;;7.50;99.90;;;;;;5058357;28;20082;-72
2022/04/25 05:08:39;;;;;;;1.92;1.75;;;7.50;99.90;;;;;;5048261;28;20044;-72
2022/04/25 05:11:06;;;;;;;9.70;4.30;;;7.50;99.90;;;;;;5035435;28;20041;-72
2022/04/25 05:13:32;;;;;;;2.10;1.67;;;7.50;99.90;;;;;;5032706;28;20486;-72
2022/04/25 05:15:58;;;;;;;5.47;3.45;;;7.50;99.90;;;;;;5033983;28;20055;-72
2022/04/25 05:18:24;;;;;;;4.80;2.53;;;7.50;99.90;;;;;;5046445;28;20179;-71
2022/04/25 05:20:50;;;;;;;3.17;2.63;;;7.50;99.90;;;;;;5041544;28;20036;-72
2022/04/25 05:23:16;;;;;;;7.40;3.58;;;7.50;99.90;;;;;;5038491;28;20087;-72
2022/04/25 05:25:42;;;;;;;6.72;3.40;;;7.50;99.90;;;;;;5031941;28;20528;-72
2022/04/25 05:28:08;;;;;;;3.95;2.70;;;7.50;99.90;;;;;;5046402;28;20506;-72
2022/04/25 05:30:35;;;;;;;4.78;3.60;;;7.50;99.90;;;;;;5045943;28;20047;-72
2022/04/25 05:33:02;;;;;;;0.82;0.82;;;7.60;99.90;;;;;;5031300;28;20043;-72
2022/04/25 05:35:35;;;;;;;4.13;2.88;;;7.50;99.90;;;;;;5056405;28;20051;-71
2022/04/25 05:38:02;;;;;;;6.03;3.33;;;7.50;99.90;;;;;;5016070;28;20072;-72
2022/04/25 05:40:28;;;;;;;6.78;3.35;;;7.60;99.90;;;;;;5056448;28;20510;-71
2022/04/25 05:42:56;;;;;;;6.57;3.80;;;7.60;99.90;;;;;;5045420;28;20037;-72
2022/04/25 05:45:23;;;;;;;3.78;2.63;;;7.60;99.90;;;;;;5045681;28;20048;-72
2022/04/25 05:47:50;;;;;;;5.90;3.75;;;7.60;99.90;;;;;;5030237;28;20068;-72
2022/04/25 05:53:02;;;;;;;8.95;4.97;;;7.60;99.90;;;;;;5044218;28;20545;-72
2022/04/25 05:55:31;;;;;;;4.25;3.13;;;7.60;99.90;;;;;;5051659;28;20044;-72
2022/04/25 05:58:03;;;;;;;2.25;2.05;;;7.60;99.90;;;;;;5057732;28;20041;-72
2022/04/25 06:00:30;;;;;;;2.75;2.17;;;7.60;99.90;;;;;;5053792;28;20431;-72
2022/04/25 06:02:56;;;;;;;4.25;3.00;;;7.60;99.90;;;;;;5037422;28;20044;-72
2022/04/25 06:05:22;;;;;;;6.40;4.65;;;7.60;99.90;;;;;;5038015;28;20442;-72
2022/04/25 06:07:48;;;;;;;1.98;1.83;;;7.60;99.90;;;;;;5033413;28;20044;-72
2022/04/25 06:10:19;;;;;;;2.90;2.58;;;7.60;99.90;;;;;;5052474;28;20407;-72
2022/04/25 06:12:50;;;;;;;4.22;3.30;;;7.60;99.90;;;;;;5046450;28;20096;-72
2022/04/25 06:15:17;;;;;;;1.67;1.58;;;7.60;99.90;;;;;;5026643;28;20037;-72
2022/04/25 06:17:43;;;;;;;11.45;3.67;;;7.70;99.90;;;;;;5047182;28;20116;-72
2022/04/25 06:20:09;;;;;;;6.75;3.60;;;7.70;99.90;;;;;;5029925;28;20144;-72
2022/04/25 06:22:39;;;;;;;1.00;0.93;;;7.70;99.90;;;;;;5051401;28;20091;-72
2022/04/25 06:25:06;;;;;;;3.15;2.70;;;7.80;99.90;;;;;;5052712;28;20082;-72
2022/04/25 06:27:32;;;;;;;6.93;4.20;;;7.80;99.90;;;;;;5035214;28;20072;-72
2022/04/25 06:29:57;;;;;;;1.40;1.30;;;7.80;99.90;;;;;;5050373;28;20036;-72
2022/04/25 06:32:24;;;;;;;7.55;4.18;;;7.90;99.90;;;;;;5084185;28;20094;-72
2022/04/25 06:34:50;;;;;;;3.42;3.00;;;7.90;99.90;;;;;;5053183;28;20139;-72
2022/04/25 06:37:15;;;;;;;0.40;0.40;;;7.90;99.90;;;;;;5050609;28;20098;-72
2022/04/25 06:39:41;;;;;;;3.33;2.47;;;7.90;99.90;;;;;;5046453;28;20044;-72
2022/04/25 06:42:10;;;;;;;18.50;4.95;;;8.00;99.90;;;;;;5051774;28;20446;-72
2022/04/25 06:44:39;;;;;;;0.55;0.55;;;8.00;99.90;;;;;;5049855;28;20052;-72
2022/04/25 06:47:05;;;;;;;3.88;2.67;;;8.10;99.90;;;;;;5051672;28;20628;-72
2022/04/25 06:49:31;;;;;;;0.82;0.82;;;8.10;99.90;;;;;;5049122;28;20047;-72
2022/04/25 06:52:01;;;;;;;3.40;2.40;;;8.10;99.90;;;;;;5038768;28;20040;-72
2022/04/25 06:54:28;;;;;;;10.05;3.63;;;8.20;99.90;;;;;;5033502;28;20040;-72
2022/04/25 06:56:55;;;;;;;10.20;3.55;;;8.30;99.90;;;;;;5050268;28;20044;-72
2022/04/25 06:59:22;;;;;;;0.98;0.88;;;8.30;99.90;;;;;;5049923;28;20464;-72
2022/04/25 07:01:49;;;;;;;2.50;2.30;;;8.30;99.90;;;;;;5032233;28;20068;-72
2022/04/25 07:04:16;;;;;;;8.10;4.13;;;8.40;99.90;;;;;;5045953;28;20064;-72
2022/04/25 07:06:43;;;;;;;4.82;3.28;;;8.50;99.90;;;;;;5034247;28;20037;-72
2022/04/25 07:09:13;;;;;;;10.90;4.47;;;8.50;99.90;;;;;;5030806;28;20040;-72
2022/04/25 07:11:47;;;;;;;7.45;4.18;;;8.40;99.90;;;;;;5051840;28;20506;-72
2022/04/25 07:14:15;;;;;;;8.35;3.22;;;8.30;99.90;;;;;;5050926;28;20070;-72
2022/04/25 07:16:44;;;;;;;3.00;2.45;;;8.30;99.90;;;;;;5049995;28;20047;-72
2022/04/25 07:19:10;;;;;;;8.95;5.35;;;8.30;99.90;;;;;;5049869;28;20382;-72
2022/04/25 07:29:48;;;;;;;4.60;3.38;;;8.30;99.90;;;;;;5050243;28;20500;-72
2022/04/25 07:32:15;;;;;;;1.23;1.17;;;8.30;99.90;;;;;;5032600;28;20039;-72
2022/04/25 07:34:42;;;;;;;3.25;2.50;;;8.30;99.90;;;;;;5031724;28;20053;-72
2022/04/25 07:37:08;;;;;;;2.45;2.25;;;8.30;99.90;;;;;;5070144;28;20048;-72
2022/04/25 07:39:33;;;;;;;2.42;2.28;;;8.30;99.90;;;;;;5024589;28;20052;-72
2022/04/25 07:41:59;;;;;;;9.82;4.47;;;8.40;99.90;;;;;;5034240;28;20044;-72
2022/04/25 07:44:26;;;;;;;8.13;3.80;;;8.40;99.90;;;;;;5031797;28;20115;-72
2022/04/25 07:46:53;;;;;;;4.15;2.97;;;8.50;99.90;;;;;;5054450;28;20036;-72
2022/04/25 07:49:18;;;;;;;10.32;2.67;;;8.50;99.90;;;;;;5050406;28;20050;-72
2022/04/25 07:51:44;;;;;;;0.52;0.52;;;8.50;99.90;;;;;;5034205;28;20048;-72
2022/04/25 07:54:10;;;;;;;0.95;0.95;;;8.50;99.90;;;;;;5035700;28;20036;-72
2022/04/25 07:56:36;;;;;;;8.73;5.40;;;8.50;99.90;;;;;;5049744;28;20028;-72
2022/04/25 07:59:05;;;;;;;1.40;1.38;;;8.60;99.90;;;;;;5033821;28;20127;-72
2022/04/25 08:01:30;;;;;;;5.68;3.72;;;8.60;99.90;;;;;;5055537;28;20043;-72
2022/04/25 08:03:56;;;;;;;6.35;4.07;;;8.60;99.90;;;;;;5054821;28;20036;-72
2022/04/25 08:06:22;;;;;;;8.93;4.20;;;8.60;99.90;;;;;;5048741;28;20039;-72
2022/04/25 08:08:52;;;;;;;5.25;3.30;;;8.70;99.90;;;;;;5051156;28;20072;-72
2022/04/25 08:11:19;;;;;;;5.30;3.65;;;8.60;99.90;;;;;;5038994;28;20574;-72
2022/04/25 08:19:14;;;;;;;6.18;4.13;;;8.70;99.90;;;;;;5044767;28;20400;-72
2022/04/25 08:21:44;;;;;;;7.80;3.72;;;8.70;99.90;;;;;;5030725;28;20045;-72
2022/04/25 08:24:11;;;;;;;4.32;2.75;;;8.70;99.90;;;;;;5041097;28;20037;-72
2022/04/25 08:26:37;;;;;;;7.32;3.47;;;8.70;99.90;;;;;;5030664;28;23040;-72
2022/04/25 08:29:04;;;;;;;3.17;2.25;;;8.80;99.90;;;;;;5029713;28;20036;-72
2022/04/25 08:31:31;;;;;;;6.38;4.03;;;8.80;99.90;;;;;;5028586;28;20505;-72
2022/04/25 08:33:57;;;;;;;1.25;1.23;;;8.90;99.90;;;;;;5043807;28;20578;-70
2022/04/25 08:36:23;;;;;;;1.23;1.10;;;8.90;99.90;;;;;;5046688;28;20047;-69
2022/04/25 08:38:49;;;;;;;2.92;2.42;;;9.10;99.90;;;;;;5046606;28;20488;-69
2022/04/25 08:41:17;;;;;;;6.90;3.50;;;9.20;99.90;;;;;;5064593;28;20627;-69
2022/04/25 08:43:43;;;;;;;5.18;3.42;;;9.20;99.90;;;;;;5044981;28;20049;-69
2022/04/25 08:46:10;;;;;;;3.42;2.25;;;9.30;99.90;;;;;;5045886;28;20112;-70
2022/04/25 08:48:37;;;;;;;4.28;2.05;;;9.30;99.90;;;;;;5041117;28;20066;-69
2022/04/25 08:51:05;;;;;;;6.60;3.40;;;9.30;99.90;;;;;;5055134;28;20070;-70
2022/04/25 08:53:32;;;;;;;3.88;2.30;;;9.40;99.90;;;;;;5030723;28;20119;-70
2022/04/25 08:56:01;;;;;;;10.20;5.15;;;9.50;99.90;;;;;;5040677;28;20072;-69
2022/04/25 08:58:30;;;;;;;5.45;3.20;;;9.60;99.90;;;;;;5014872;28;20068;-70
2022/04/25 09:01:00;;;;;;;8.15;3.70;;;9.70;99.90;;;;;;5048903;28;20043;-70
2022/04/25 09:03:26;;;;;;;16.58;7.07;;;9.90;99.90;;;;;;5067533;28;20059;-70
2022/04/25 09:05:52;;;;;;;10.73;4.45;;;9.90;99.90;;;;;;5051332;28;20479;-70
2022/04/25 09:08:18;;;;;;;7.38;4.38;;;9.90;99.90;;;;;;5043559;28;20116;-70
2022/04/25 09:10:48;;;;;;;5.68;3.83;;;9.90;99.90;;;;;;5033010;28;20047;-70
2022/04/25 09:13:14;;;;;;;8.05;3.55;;;9.90;99.90;;;;;;5047857;28;20450;-70
2022/04/25 09:15:40;;;;;;;9.27;5.05;;;9.80;99.90;;;;;;5033043;28;20071;-70
2022/04/25 09:18:05;;;;;;;2.63;2.42;;;9.80;99.90;;;;;;5032761;28;20090;-70
2022/04/25 09:20:31;;;;;;;4.18;3.25;;;9.80;99.90;;;;;;5049624;28;20029;-70
2022/04/25 09:22:58;;;;;;;8.00;4.28;;;9.80;99.90;;;;;;5042212;28;20052;-70
2022/04/25 09:25:23;;;;;;;1.75;1.65;;;9.80;99.90;;;;;;5030612;28;20036;-70
2022/04/25 09:28:07;;;;;;;5.35;2.85;;;9.80;99.90;;;;;;5028212;28;20062;-70
2022/04/25 09:30:33;;;;;;;0.75;0.75;;;9.80;99.90;;;;;;5033977;28;20037;-70
2022/04/25 09:32:58;;;;;;;0.75;0.75;;;9.80;99.90;;;;;;5033493;28;20093;-70
2022/04/25 09:35:35;;;;;;;1.08;1.05;;;9.80;99.90;;;;;;5033360;28;20133;-70
2022/04/25 09:38:05;;;;;;;2.42;2.15;;;9.90;99.90;;;;;;5055175;28;20036;-70
2022/04/25 09:40:36;;;;;;;2.95;1.40;;;9.90;99.90;;;;;;5049961;28;20522;-70
2022/04/25 09:43:06;;;;;;;0.57;0.57;;;9.90;99.90;;;;;;5039446;28;20491;-70
2022/04/25 09:45:33;;;;;;;1.45;1.35;;;9.90;99.90;;;;;;5057865;28;20127;-70
2022/04/25 09:47:59;;;;;;;2.83;1.40;;;10.00;99.90;;;;;;5038250;28;20070;-70
2022/04/25 09:50:27;;;;;;;1.17;1.05;;;10.10;99.90;;;;;;5053713;28;20060;-70
2022/04/25 09:52:59;;;;;;;1.20;1.00;;;10.20;99.90;;;;;;5042814;28;20039;-70
2022/04/25 09:55:26;;;;;;;1.42;1.33;;;10.20;99.90;;;;;;5071125;28;20043;-72
2022/04/25 09:57:53;;;;;;;2.38;1.50;;;10.30;99.90;;;;;;5033315;28;20429;-70
2022/04/25 10:00:36;;;;;;;4.38;1.35;;;10.40;99.90;;;;;;5052548;28;20541;-70
2022/04/25 10:03:03;;;;;;;;;;;10.60;99.90;;;;;;5053500;28;20039;-70
2022/04/25 10:05:42;;;;;;;4.03;2.13;;;10.80;99.90;;;;;;5058598;28;19920;-70
2022/04/25 10:08:10;;;;;;;4.40;2.33;;;10.90;99.90;;;;;;5057907;28;20051;-70
2022/04/25 10:10:46;;;;;;;0.20;0.20;;;11.00;99.90;;;;;;5062257;28;20036;-70
2022/04/25 10:13:13;;;;;;;2.50;1.20;;;11.00;99.90;;;;;;5053110;28;20075;-70
2022/04/25 10:15:40;;;;;;;3.28;1.58;;;11.10;99.90;;;;;;5037258;28;20040;-70
2022/04/25 10:18:06;;;;;;;7.65;2.15;;;11.30;99.90;;;;;;5057305;28;20044;-70
2022/04/25 10:20:37;;;;;;;4.72;3.08;;;11.30;99.90;;;;;;5048036;28;20479;-70
2022/04/25 10:23:09;;;;;;;2.63;1.70;;;11.30;99.90;;;;;;5052069;28;20083;-70
2022/04/25 10:25:36;;;;;;;3.00;0.87;;;11.40;99.90;;;;;;5052391;28;20071;-70
2022/04/25 10:28:06;;;;;;;3.70;2.45;;;11.40;99.90;;;;;;5037579;28;20532;-70
2022/04/25 10:30:33;;;;;;;1.20;0.95;;;11.50;99.90;;;;;;5030959;28;20052;-70
2022/04/25 10:33:18;;;;;;;1.75;1.60;;;11.50;99.90;;;;;;5046428;28;20199;-70
2022/04/25 10:35:48;;;;;;;3.92;2.58;;;11.60;99.90;;;;;;5041028;28;20146;-70
2022/04/25 10:38:48;;;;;;;11.85;2.08;;;11.80;99.90;;;;;;5042899;28;20048;-70
2022/04/25 10:44:32;;;;;;;9.32;2.97;;;11.90;99.90;;;;;;5040980;28;20044;-70
2022/04/25 10:47:06;;;;;;;0.50;0.50;;;12.00;99.90;;;;;;5027692;28;20110;-70
2022/04/25 10:49:34;;;;;;;3.22;1.67;;;12.00;99.90;;;;;;5045748;28;20092;-70
2022/04/25 10:52:02;;;;;;;4.15;2.13;;;12.10;99.90;;;;;;5040335;28;20029;-71
2022/04/25 10:54:45;;;;;;;10.43;2.13;;;12.10;99.90;;;;;;5033490;28;20060;-71
2022/04/25 10:57:11;;;;;;;;;;;12.10;99.90;;;;;;5063063;28;20036;-70
2022/04/25 10:59:40;;;;;;;1.55;1.10;;;12.10;99.90;;;;;;5045192;28;19927;-70
2022/04/25 11:02:26;;;;;;;1.60;1.45;;;12.00;99.90;;;;;;5047105;28;20097;-70
2022/04/25 11:05:10;;;;;;;1.15;1.10;;;12.10;99.90;;;;;;5053108;28;20041;-71
2022/04/25 11:07:37;;;;;;;7.18;1.73;;;12.10;99.90;;;;;;5045179;28;20067;-70
2022/04/25 11:10:04;;;;;;;3.03;1.63;;;12.10;99.90;;;;;;5046084;28;20048;-70
2022/04/25 11:12:55;;;;;;;0.73;0.73;;;12.10;99.90;;;;;;5033254;28;20062;-70
2022/04/25 11:15:42;;;;;;;2.63;0.85;;;12.10;99.90;;;;;;5049276;28;20098;-71
2022/04/25 11:20:58;;;;;;;3.92;1.55;;;12.10;99.90;;;;;;5049157;28;20417;-71
2022/04/25 11:23:30;;;;;;;1.75;1.52;;;12.20;99.90;;;;;;5046558;28;20376;-70
2022/04/25 11:25:56;;;;;;;3.67;1.63;;;12.20;99.90;;;;;;5054225;28;20045;-71
2022/04/25 11:28:24;;;;;;;0.20;0.20;;;12.30;99.90;;;;;;5031461;28;20048;-71
2022/04/25 11:31:15;;;;;;;1.27;1.17;;;12.40;99.90;;;;;;5034047;28;20106;-70
2022/04/25 11:33:42;;;;;;;2.45;1.90;;;12.60;99.90;;;;;;5033129;28;20050;-70
2022/04/25 11:36:10;;;;;;;3.20;2.22;;;12.80;99.90;;;;;;5033058;28;20040;-71
2022/04/25 11:41:22;;;;;;;0.38;0.38;;;13.10;99.90;;;;;;5046529;28;20492;-71
2022/04/25 11:43:48;;;;;;;2.47;1.77;;;13.30;99.90;;;;;;5028092;28;20044;-71
2022/04/25 11:46:15;;;;;;;1.33;1.02;;;13.60;99.90;;;;;;5031689;28;20460;-71
2022/04/25 11:48:40;;;;;;;0.45;0.32;;;13.80;99.90;;;;;;5042490;28;20089;-71
2022/04/25 11:51:06;;;;;;;2.05;1.85;;;14.00;99.90;;;;;;5029400;28;20131;-71
2022/04/25 11:53:33;;;;;;;0.38;0.38;;;14.00;99.90;;;;;;5014979;28;20076;-71
2022/04/25 11:56:01;;;;;;;1.35;1.25;;;13.90;99.90;;;;;;5031825;28;20552;-71
2022/04/25 11:58:30;;;;;;;4.63;2.00;;;13.70;99.90;;;;;;5011090;28;20090;-70
2022/04/25 12:00:56;;;;;;;1.55;1.45;;;13.60;99.90;;;;;;5019536;28;20080;-70
2022/04/25 12:03:24;;;;;;;1.52;1.00;;;13.40;99.90;;;;;;5035121;28;20136;-70
2022/04/25 12:05:50;;;;;;;1.35;0.95;;;13.30;99.90;;;;;;5054730;28;20051;-70
2022/04/25 12:16:38;;;;;;;2.38;1.70;;;12.90;99.90;;;;;;5038736;28;20049;-70
2022/04/25 12:19:06;;;;;;;3.38;1.50;;;12.80;99.90;;;;;;5041372;28;20052;-70
2022/04/25 12:21:34;;;;;;;1.05;0.70;;;12.80;99.90;;;;;;5015334;28;20140;-70
2022/04/25 12:24:00;;;;;;;9.88;1.80;;;12.80;99.90;;;;;;5036407;28;20047;-71
2022/04/25 12:26:29;;;;;;;1.02;1.02;;;12.80;99.90;;;;;;5024847;28;20036;-70
2022/04/25 12:29:06;;;;;;;2.33;1.58;;;12.80;99.90;;;;;;5016418;28;20384;-71
2022/04/25 12:31:45;;;;;;;2.33;1.10;;;12.80;99.90;;;;;;5034918;28;20049;-71
2022/04/25 12:34:12;;;;;;;2.75;1.65;;;12.70;99.90;;;;;;5025873;28;20036;-70
2022/04/25 12:36:39;;;;;;;0.65;0.65;;;12.60;99.90;;;;;;5031303;28;20128;-71
2022/04/25 12:39:15;;;;;;;1.30;1.20;;;12.50;99.90;;;;;;5015367;28;20036;-70
2022/04/25 12:41:53;;;;;;;0.55;0.55;;;12.50;99.90;;;;;;5031513;28;20044;-70
2022/04/25 12:44:19;;;;;;;8.77;1.75;;;12.40;99.90;;;;;;5033222;28;20131;-70
2022/04/25 12:47:04;;;;;;;1.55;1.02;;;12.40;99.90;;;;;;5051123;28;20123;-70
2022/04/25 12:49:38;;;;;;;0.50;0.50;;;12.30;99.90;;;;;;5045198;28;20115;-70
2022/04/25 12:52:07;;;;;;;1.70;1.42;;;12.40;99.90;;;;;;5031087;28;20098;-70
2022/04/25 12:54:37;;;;;;;0.63;0.55;;;12.40;99.90;;;;;;5031265;28;20573;-70
2022/04/25 12:57:06;;;;;;;0.88;0.75;;;12.40;99.90;;;;;;5036571;28;20051;-70
2022/04/25 12:59:33;;;;;;;0.15;0.15;;;12.40;99.90;;;;;;5045106;28;20078;-70
2022/04/25 13:02:15;;;;;;;4.53;2.15;;;12.40;99.90;;;;;;5038559;28;20049;-70
2022/04/25 13:04:57;;;;;;;0.85;0.85;;;12.50;99.90;;;;;;5020532;28;20174;-70
2022/04/25 13:07:31;;;;;;;4.47;2.58;;;12.50;99.90;;;;;;5026626;28;20059;-70
2022/04/25 13:10:01;;;;;;;3.65;2.35;;;12.50;99.90;;;;;;5051200;28;20040;-70
2022/04/25 13:12:35;;;;;;;0.30;0.30;;;12.60;99.90;;;;;;5050349;28;20372;-70
2022/04/25 13:15:03;;;;;;;2.13;1.55;;;12.70;99.90;;;;;;5083877;28;20508;-70
2022/04/25 13:17:29;;;;;;;0.40;0.40;;;12.70;99.90;;;;;;5049714;28;20143;-70
2022/04/25 13:19:54;;;;;;;0.25;0.25;;;12.80;99.90;;;;;;5050641;28;20131;-70
2022/04/25 13:22:20;;;;;;;1.13;1.02;;;12.80;99.90;;;;;;5034342;28;20416;-70
2022/04/25 13:24:46;;;;;;;3.50;2.05;;;12.80;99.90;;;;;;5049681;28;20091;-70
2022/04/25 13:27:13;;;;;;;1.58;1.48;;;12.80;99.90;;;;;;5050050;28;20394;-71
2022/04/25 13:29:38;;;;;;;2.90;0.70;;;12.90;99.90;;;;;;5046439;28;20132;-70
2022/04/25 13:32:05;;;;;;;6.63;1.98;;;12.90;99.90;;;;;;5050515;28;20127;-70
2022/04/25 13:34:31;;;;;;;2.97;1.52;;;13.00;99.90;;;;;;5050420;28;20323;-70
2022/04/25 13:36:59;;;;;;;2.05;1.58;;;13.20;99.90;;;;;;5050367;28;20460;-70
2022/04/25 13:39:25;;;;;;;1.95;1.63;;;13.30;99.90;;;;;;5050379;28;20048;-70